Time;durP1;ratioP1;P1;durP2;ratioP2;P2;SDS_P1;SDS_P2;PMS_P1;PMS_P2;Temp;Humidity;BMP_temperature;BMP_pressure;BME280_temperature;BME280_humidity;BME280_pressure;Samples;Min_cycle;Max_cycle;Signal;HPM_P1;HPM_P2
2021/09/24 00:01:48;;;;;;;6.27;5.17;;;;;;;12.31;74.95;95899.22;6132159;23;20166;-78
2021/09/24 00:04:14;;;;;;;5.77;5.20;;;;;;;12.25;74.96;95903.22;6156350;23;20166;-79
2021/09/24 00:06:40;;;;;;;6.10;5.43;;;;;;;12.21;74.93;95903.69;6132014;23;20175;-77
2021/09/24 00:09:06;;;;;;;8.93;5.53;;;;;;;12.21;75.11;95906.31;6132401;23;20162;-78
2021/09/24 00:11:32;;;;;;;6.23;5.30;;;;;;;12.14;75.25;95912.09;6156451;23;20179;-81
2021/09/24 00:13:57;;;;;;;7.77;5.63;;;;;;;12.17;75.17;95901.38;6155913;23;20206;-77
2021/09/24 00:16:22;;;;;;;7.10;5.40;;;;;;;12.16;75.33;95906.72;6156509;23;20637;-78
2021/09/24 00:18:47;;;;;;;8.03;5.27;;;;;;;12.14;75.33;95896.47;6132722;23;20160;-78
2021/09/24 00:21:13;;;;;;;7.20;5.10;;;;;;;12.09;75.34;95898.69;6156642;23;20155;-79
2021/09/24 00:23:38;;;;;;;8.20;5.10;;;;;;;12.06;75.70;95900.78;6131378;23;20167;-79
2021/09/24 00:26:03;;;;;;;5.57;5.00;;;;;;;12.05;75.77;95894.75;6157368;23;20258;-79
2021/09/24 00:28:29;;;;;;;5.70;4.63;;;;;;;12.04;75.79;95898.34;6157299;23;20178;-79
2021/09/24 00:30:54;;;;;;;7.50;5.10;;;;;;;12.00;76.15;95886.56;6155781;23;20600;-80
2021/09/24 00:33:19;;;;;;;7.30;5.53;;;;;;;11.95;75.96;95878.41;6157643;23;20203;-79
2021/09/24 00:35:44;;;;;;;8.50;5.47;;;;;;;11.99;76.04;95873.69;6156134;23;20177;-80
2021/09/24 00:38:10;;;;;;;6.40;5.60;;;;;;;12.02;76.01;95866.44;6155405;23;20163;-78
2021/09/24 00:40:36;;;;;;;8.47;5.60;;;;;;;12.02;76.13;95869.03;6156415;23;20476;-80
2021/09/24 00:43:02;;;;;;;7.30;5.67;;;;;;;12.05;76.13;95860.09;6157605;23;20148;-78
2021/09/24 00:45:28;;;;;;;7.60;5.77;;;;;;;12.02;76.24;95863.81;6154369;23;20152;-78
2021/09/24 00:47:53;;;;;;;7.63;5.00;;;;;;;12.06;76.53;95854.75;6158072;23;20234;-79
2021/09/24 00:50:19;;;;;;;10.50;5.50;;;;;;;12.06;76.17;95849.53;6158002;23;20167;-80
2021/09/24 00:52:44;;;;;;;6.27;5.40;;;;;;;12.05;76.12;95852.28;6132262;23;20183;-80
2021/09/24 00:55:10;;;;;;;7.67;5.43;;;;;;;12.06;76.31;95859.94;6155859;23;20512;-79
2021/09/24 00:57:35;;;;;;;7.33;4.97;;;;;;;12.00;76.40;95859.72;6131930;23;20644;-80
2021/09/24 01:00:00;;;;;;;6.00;5.40;;;;;;;12.03;76.66;95860.25;6156130;23;20144;-78
2021/09/24 01:02:26;;;;;;;7.50;5.70;;;;;;;12.01;76.44;95861.34;6156780;23;20152;-80
2021/09/24 01:04:51;;;;;;;6.87;5.43;;;;;;;12.00;76.92;95863.13;6155943;23;20162;-80
2021/09/24 01:07:16;;;;;;;8.67;5.43;;;;;;;11.95;77.07;95862.78;6156059;23;20179;-78
2021/09/24 01:09:42;;;;;;;5.83;5.23;;;;;;;11.93;76.75;95864.72;6157467;23;20171;-79
2021/09/24 01:12:09;;;;;;;8.13;5.67;;;;;;;11.88;77.02;95866.94;6155364;23;20176;-78
2021/09/24 01:14:34;;;;;;;6.37;5.27;;;;;;;11.92;77.08;95863.06;6155476;23;20175;-80
2021/09/24 01:17:00;;;;;;;8.03;5.03;;;;;;;11.85;77.47;95862.84;6158049;23;20241;-79
2021/09/24 01:19:27;;;;;;;7.80;5.73;;;;;;;11.92;77.16;95868.25;6155815;23;20230;-78
2021/09/24 01:21:53;;;;;;;7.73;5.40;;;;;;;11.86;77.58;95864.47;6155971;23;20215;-79
2021/09/24 01:24:19;;;;;;;6.57;5.20;;;;;;;11.88;77.39;95864.34;6130585;23;20155;-80
2021/09/24 01:26:49;;;;;;;7.43;5.73;;;;;;;11.86;77.68;95863.66;6156202;23;20237;-79
2021/09/24 01:29:15;;;;;;;7.13;5.30;;;;;;;11.87;77.45;95866.13;6156076;23;20234;-80
2021/09/24 01:31:41;;;;;;;6.83;5.47;;;;;;;11.87;77.68;95860.09;6130956;23;20277;-79
2021/09/24 01:34:06;;;;;;;6.20;5.60;;;;;;;11.86;77.92;95855.88;6155136;23;20158;-79
2021/09/24 01:36:31;;;;;;;6.40;5.60;;;;;;;11.88;77.87;95859.94;6155455;23;20254;-80
2021/09/24 01:39:02;;;;;;;7.50;5.60;;;;;;;11.90;78.05;95852.81;6154809;23;20609;-80
2021/09/24 01:41:28;;;;;;;7.43;6.30;;;;;;;11.87;78.09;95860.91;6156320;23;20135;-78
2021/09/24 01:43:53;;;;;;;6.47;5.20;;;;;;;11.91;78.14;95857.03;6155364;23;20187;-78
2021/09/24 01:46:18;;;;;;;6.83;4.90;;;;;;;11.88;77.97;95856.53;6157289;23;20175;-78
2021/09/24 01:48:44;;;;;;;7.30;5.73;;;;;;;11.86;78.02;95861.88;6155046;23;20170;-79
2021/09/24 01:51:09;;;;;;;6.07;5.27;;;;;;;11.82;78.36;95857.09;6155772;23;20558;-79
2021/09/24 01:53:34;;;;;;;8.33;6.17;;;;;;;11.80;78.73;95859.84;6154632;23;20553;-79
2021/09/24 01:56:00;;;;;;;6.40;5.70;;;;;;;11.81;78.50;95863.28;6130560;23;20641;-78
2021/09/24 01:58:25;;;;;;;7.67;5.40;;;;;;;11.81;78.57;95858.88;6155665;23;20211;-79
2021/09/24 02:00:50;;;;;;;7.40;5.40;;;;;;;11.76;78.77;95860.28;6155721;23;20151;-78
2021/09/24 02:03:16;;;;;;;6.80;6.00;;;;;;;11.68;78.92;95866.22;6155595;23;20162;-79
2021/09/24 02:05:41;;;;;;;6.40;5.80;;;;;;;11.64;78.97;95860.47;6154669;23;20186;-79
2021/09/24 02:08:06;;;;;;;8.10;6.20;;;;;;;11.66;79.17;95859.50;6155738;23;20249;-79
2021/09/24 02:10:32;;;;;;;7.60;6.07;;;;;;;11.62;79.21;95866.78;6155048;23;20155;-78
2021/09/24 02:12:58;;;;;;;8.23;5.87;;;;;;;11.61;79.58;95863.38;6155869;23;20186;-79
2021/09/24 02:15:24;;;;;;;7.33;5.70;;;;;;;11.55;79.32;95863.94;6130130;23;20705;-78
2021/09/24 02:17:50;;;;;;;6.77;5.90;;;;;;;11.57;79.72;95866.41;6155541;23;20238;-78
2021/09/24 02:20:15;;;;;;;6.87;5.63;;;;;;;11.58;79.84;95865.47;6154895;23;20618;-79
2021/09/24 02:22:40;;;;;;;6.83;5.73;;;;;;;11.54;79.81;95862.31;6155427;23;20274;-79
2021/09/24 02:25:06;;;;;;;11.97;6.83;;;;;;;11.54;80.10;95866.69;6154656;23;20151;-79
2021/09/24 02:27:31;;;;;;;9.83;7.77;;;;;;;11.51;80.37;95865.22;6157394;23;20226;-79
2021/09/24 02:29:57;;;;;;;11.10;6.40;;;;;;;11.43;80.12;95865.13;6155288;23;20609;-79
2021/09/24 02:32:22;;;;;;;7.53;6.43;;;;;;;11.37;80.69;95857.91;6155535;23;20230;-80
2021/09/24 02:34:47;;;;;;;7.93;6.37;;;;;;;11.35;80.57;95860.66;6153735;23;20494;-79
2021/09/24 02:37:13;;;;;;;9.77;6.07;;;;;;;11.32;80.78;95860.13;6154755;23;20479;-77
2021/09/24 02:39:38;;;;;;;9.27;5.90;;;;;;;11.27;80.46;95862.31;6154637;23;20207;-78
2021/09/24 02:42:04;;;;;;;11.17;6.50;;;;;;;11.22;80.99;95859.31;6130235;23;20162;-77
2021/09/24 02:44:29;;;;;;;8.33;6.20;;;;;;;11.21;81.40;95865.50;6129373;23;20160;-78
2021/09/24 02:46:54;;;;;;;7.00;6.13;;;;;;;11.23;80.97;95868.78;6129570;23;20207;-79
2021/09/24 02:49:20;;;;;;;9.43;6.53;;;;;;;11.24;80.89;95865.22;6154323;23;20156;-79
2021/09/24 02:51:45;;;;;;;7.27;6.33;;;;;;;11.23;81.23;95872.22;6155385;23;20270;-78
2021/09/24 02:54:10;;;;;;;8.57;6.50;;;;;;;11.25;81.30;95864.25;6153823;23;20179;-78
2021/09/24 02:56:35;;;;;;;8.40;7.07;;;;;;;11.24;81.18;95865.22;6155029;23;20585;-79
2021/09/24 02:59:01;;;;;;;8.07;6.83;;;;;;;11.23;80.86;95863.59;6155091;23;20597;-78
2021/09/24 03:01:26;;;;;;;8.17;7.13;;;;;;;11.20;81.33;95866.47;6155310;23;20151;-79
2021/09/24 03:03:52;;;;;;;10.73;6.17;;;;;;;11.26;81.31;95863.28;6153669;23;20175;-78
2021/09/24 03:06:17;;;;;;;7.30;5.70;;;;;;;11.18;81.31;95860.59;6156113;23;20171;-80
2021/09/24 03:08:42;;;;;;;7.83;6.40;;;;;;;11.09;82.06;95857.06;6154534;23;20166;-79
2021/09/24 03:11:07;;;;;;;8.87;6.53;;;;;;;11.12;81.95;95858.56;6156065;23;20493;-79
2021/09/24 03:13:33;;;;;;;6.97;5.87;;;;;;;11.09;82.05;95858.84;6154127;23;20473;-78
2021/09/24 03:15:59;;;;;;;7.23;5.53;;;;;;;11.16;81.74;95855.53;6129934;23;20664;-79
2021/09/24 03:18:24;;;;;;;8.03;5.73;;;;;;;11.09;81.65;95858.84;6155228;23;20190;-78
2021/09/24 03:20:52;;;;;;;7.00;6.30;;;;;;;11.03;81.96;95855.84;6130145;23;20155;-79
2021/09/24 03:23:18;;;;;;;7.27;5.77;;;;;;;11.01;82.13;95851.75;6154566;23;20591;-79
2021/09/24 03:25:45;;;;;;;7.63;6.30;;;;;;;10.98;82.24;95854.66;6128904;23;20675;-77
2021/09/24 03:28:11;;;;;;;8.27;6.40;;;;;;;10.97;82.69;95848.63;6154316;23;20605;-78
2021/09/24 03:30:36;;;;;;;8.13;5.80;;;;;;;10.97;82.58;95851.25;6154200;23;20156;-77
2021/09/24 03:33:01;;;;;;;8.27;6.63;;;;;;;10.90;82.89;95855.38;6153549;23;20544;-78
2021/09/24 03:35:27;;;;;;;9.83;5.93;;;;;;;10.89;82.60;95848.53;6128905;23;20631;-79
2021/09/24 03:37:52;;;;;;;9.77;6.27;;;;;;;10.87;83.04;95841.84;6152933;23;20174;-78
2021/09/24 03:40:17;;;;;;;6.93;6.23;;;;;;;10.86;83.31;95843.59;6129441;23;20170;-78
2021/09/24 03:42:43;;;;;;;6.33;5.73;;;;;;;10.81;82.90;95840.63;6154830;23;20147;-79
2021/09/24 03:45:09;;;;;;;7.47;5.90;;;;;;;10.75;83.20;95835.97;6153565;23;20608;-79
2021/09/24 03:47:35;;;;;;;8.37;6.57;;;;;;;10.69;83.50;95846.94;6130192;23;20233;-80
2021/09/24 03:50:00;;;;;;;9.33;6.10;;;;;;;10.67;83.52;95848.84;6154781;23;20163;-78
2021/09/24 03:52:26;;;;;;;8.13;6.80;;;;;;;10.59;83.49;95851.34;6154367;23;20179;-79
2021/09/24 03:54:51;;;;;;;11.47;6.60;;;;;;;10.55;83.58;95843.00;6129161;23;20170;-79
2021/09/24 03:57:16;;;;;;;10.50;6.30;;;;;;;10.56;83.63;95851.63;6154902;23;20553;-79
2021/09/24 03:59:42;;;;;;;9.10;6.50;;;;;;;10.55;83.78;95848.22;6154446;23;20155;-78
2021/09/24 04:02:07;;;;;;;8.17;6.30;;;;;;;10.50;84.40;95840.81;6154402;23;20155;-78
2021/09/24 04:04:32;;;;;;;8.97;6.43;;;;;;;10.54;84.72;95849.16;6155085;23;20174;-79
2021/09/24 04:06:57;;;;;;;7.47;6.00;;;;;;;10.57;84.13;95840.28;6129427;23;20183;-79
2021/09/24 04:09:23;;;;;;;7.57;6.57;;;;;;;10.44;83.88;95844.00;6154484;23;20159;-79
2021/09/24 04:11:48;;;;;;;8.10;6.37;;;;;;;10.51;84.19;95839.03;6155633;23;20180;-79
2021/09/24 04:14:13;;;;;;;9.13;6.80;;;;;;;10.41;84.94;95844.25;6154823;23;20155;-79
2021/09/24 04:16:39;;;;;;;7.73;5.87;;;;;;;10.40;85.04;95837.44;6154590;23;20198;-79
2021/09/24 04:19:04;;;;;;;8.90;6.70;;;;;;;10.35;85.05;95839.66;6130489;23;20486;-79
2021/09/24 04:21:29;;;;;;;7.13;6.23;;;;;;;10.40;85.39;95842.63;6153854;23;20147;-79
2021/09/24 04:23:55;;;;;;;9.87;6.17;;;;;;;10.45;84.86;95837.03;6153654;23;20214;-79
2021/09/24 04:26:20;;;;;;;8.37;6.83;;;;;;;10.42;85.39;95832.09;6129854;23;20179;-79
2021/09/24 04:28:46;;;;;;;7.93;6.67;;;;;;;10.37;85.67;95837.72;6154595;23;20191;-78
2021/09/24 04:31:11;;;;;;;11.03;7.07;;;;;;;10.41;86.13;95833.06;6155862;23;20159;-80
2021/09/24 04:33:36;;;;;;;8.13;6.57;;;;;;;10.43;85.08;95831.97;6154327;23;20162;-81
2021/09/24 04:36:02;;;;;;;7.97;6.87;;;;;;;10.47;85.90;95825.53;6131413;23;20182;-78
2021/09/24 04:38:27;;;;;;;10.93;7.00;;;;;;;10.46;85.58;95830.88;6154935;23;20203;-78
2021/09/24 04:40:53;;;;;;;7.40;6.70;;;;;;;10.49;85.31;95831.41;6155694;23;20155;-78
2021/09/24 04:43:18;;;;;;;9.83;7.10;;;;;;;10.39;85.30;95828.00;6156606;23;20158;-78
2021/09/24 04:45:43;;;;;;;9.90;7.30;;;;;;;10.39;85.66;95830.59;6155347;23;20179;-79
2021/09/24 04:48:09;;;;;;;8.13;7.10;;;;;;;10.39;85.57;95825.41;6158336;23;20602;-79
2021/09/24 04:50:34;;;;;;;9.07;6.90;;;;;;;10.39;85.87;95827.19;6155941;23;20159;-78
2021/09/24 04:52:59;;;;;;;9.00;6.50;;;;;;;10.35;85.38;95823.25;6155757;23;20182;-80
2021/09/24 04:55:25;;;;;;;8.97;7.53;;;;;;;10.29;85.57;95824.63;6129462;23;20175;-78
2021/09/24 04:57:50;;;;;;;7.70;6.80;;;;;;;10.24;85.54;95825.97;6155853;23;20152;-79
2021/09/24 05:00:15;;;;;;;11.00;6.97;;;;;;;10.20;85.64;95825.41;6155908;23;20155;-79
2021/09/24 05:02:41;;;;;;;7.80;6.90;;;;;;;10.13;86.29;95835.53;6129954;23;20163;-78
2021/09/24 05:05:08;;;;;;;8.83;7.33;;;;;;;10.19;86.41;95834.16;6155084;23;20163;-80
2021/09/24 05:07:33;;;;;;;7.73;6.43;;;;;;;10.14;86.41;95833.75;6089732;23;20544;-81
2021/09/24 05:09:58;;;;;;;8.20;6.70;;;;;;;10.09;86.20;95836.78;6159331;23;20198;-81
2021/09/24 05:12:24;;;;;;;10.00;7.03;;;;;;;10.03;86.33;95839.09;6160686;23;20213;-80
2021/09/24 05:14:49;;;;;;;9.27;7.10;;;;;;;10.02;86.59;95837.44;6160171;23;20553;-80
2021/09/24 05:17:15;;;;;;;10.20;7.00;;;;;;;10.05;86.99;95839.75;6185738;23;20201;-79
2021/09/24 05:19:40;;;;;;;10.57;6.90;;;;;;;10.06;86.79;95844.00;6186223;23;20596;-79
2021/09/24 05:22:05;;;;;;;8.13;6.63;;;;;;;10.05;86.63;95843.16;6186005;23;20216;-80
2021/09/24 05:24:31;;;;;;;9.70;7.00;;;;;;;10.08;86.95;95852.47;6161918;23;20281;-80
2021/09/24 05:26:56;;;;;;;9.77;7.20;;;;;;;10.16;86.32;95840.47;6186652;23;20175;-81
2021/09/24 05:29:21;;;;;;;9.43;7.23;;;;;;;10.13;86.19;95853.69;6186028;23;20224;-81
2021/09/24 05:31:47;;;;;;;7.27;6.43;;;;;;;10.18;86.44;95855.88;6186575;23;20170;-81
2021/09/24 05:34:13;;;;;;;10.53;7.30;;;;;;;10.23;86.69;95850.28;6158192;23;20163;-81
2021/09/24 05:36:38;;;;;;;8.63;6.57;;;;;;;10.23;86.44;95845.91;6161186;23;20208;-81
2021/09/24 05:39:04;;;;;;;8.57;6.70;;;;;;;10.30;85.76;95847.00;6161335;23;20637;-81
2021/09/24 05:41:29;;;;;;;7.90;6.50;;;;;;;10.35;85.87;95838.81;6160797;23;20158;-81
2021/09/24 05:43:54;;;;;;;8.20;7.13;;;;;;;10.43;85.56;95844.97;6185908;23;20532;-81
2021/09/24 05:46:20;;;;;;;9.87;6.87;;;;;;;10.43;85.82;95847.56;6184718;23;20225;-81
2021/09/24 05:48:46;;;;;;;9.60;7.47;;;;;;;10.45;85.97;95840.44;6186024;23;20605;-81
2021/09/24 05:51:11;;;;;;;8.20;7.30;;;;;;;10.56;85.73;95847.25;6160701;23;20165;-81
2021/09/24 05:53:37;;;;;;;9.70;7.57;;;;;;;10.62;85.58;95851.06;6159815;23;20604;-81
2021/09/24 05:56:03;;;;;;;12.90;7.93;;;;;;;10.64;85.74;95854.34;6184250;23;20636;-80
2021/09/24 05:58:28;;;;;;;10.80;6.77;;;;;;;10.75;85.08;95854.16;6185439;23;20197;-83
2021/09/24 06:00:53;;;;;;;8.73;7.93;;;;;;;10.81;84.47;95858.81;6184492;23;20150;-82
2021/09/24 06:03:19;;;;;;;9.83;7.50;;;;;;;10.86;84.75;95864.38;6184526;23;20155;-83
2021/09/24 06:05:44;;;;;;;8.83;7.37;;;;;;;10.90;84.58;95860.56;6183558;23;20178;-82
2021/09/24 06:08:09;;;;;;;8.83;7.00;;;;;;;10.98;84.57;95859.84;6184624;23;20229;-82
2021/09/24 06:10:38;;;;;;;9.40;6.90;;;;;;;11.02;84.41;95864.59;6184856;23;20147;-82
2021/09/24 06:13:03;;;;;;;9.60;6.90;;;;;;;11.07;84.23;95867.59;6185041;23;20170;-82
2021/09/24 06:15:28;;;;;;;10.00;7.20;;;;;;;11.15;84.25;95873.88;6159466;23;20154;-82
2021/09/24 06:17:54;;;;;;;7.93;6.83;;;;;;;11.22;83.78;95867.13;6158747;23;20221;-81
2021/09/24 06:20:20;;;;;;;9.00;7.30;;;;;;;11.24;83.47;95873.03;6187193;23;20604;-84
2021/09/24 06:22:46;;;;;;;7.77;6.17;;;;;;;11.36;83.15;95861.47;6185818;23;20158;-83
2021/09/24 06:25:12;;;;;;;7.37;6.60;;;;;;;11.34;83.37;95860.78;6158730;23;20232;-84
2021/09/24 06:27:38;;;;;;;8.80;6.43;;;;;;;11.39;82.89;95871.56;6159378;23;20219;-83
2021/09/24 06:30:06;;;;;;;8.53;7.00;;;;;;;11.58;82.34;95873.25;6158772;23;20212;-82
2021/09/24 06:32:32;;;;;;;8.20;7.00;;;;;;;11.58;82.44;95868.06;6184113;23;20178;-83
2021/09/24 06:34:57;;;;;;;7.27;6.57;;;;;;;11.70;82.39;95872.09;6158864;23;20165;-82
2021/09/24 06:37:22;;;;;;;8.33;6.93;;;;;;;11.77;82.11;95867.13;6184621;23;20184;-82
2021/09/24 06:39:48;;;;;;;8.53;7.33;;;;;;;11.82;81.95;95881.34;6160479;23;20165;-83
2021/09/24 06:42:14;;;;;;;7.63;6.70;;;;;;;11.89;81.66;95874.59;6161406;23;20528;-83
2021/09/24 06:44:40;;;;;;;7.27;6.53;;;;;;;12.07;81.22;95874.59;6185832;23;20179;-83
2021/09/24 06:47:06;;;;;;;9.57;6.90;;;;;;;12.08;81.30;95880.63;6161258;23;20236;-82
2021/09/24 06:49:32;;;;;;;8.13;7.30;;;;;;;12.26;80.69;95881.44;6186202;23;20509;-82
2021/09/24 06:51:57;;;;;;;7.00;6.30;;;;;;;12.33;80.66;95887.69;6186015;23;20205;-82
2021/09/24 06:54:23;;;;;;;9.90;7.07;;;;;;;12.36;80.02;95882.16;6160649;23;20217;-81
2021/09/24 06:56:49;;;;;;;10.23;6.63;;;;;;;12.42;80.33;95880.75;6160674;23;20235;-79
2021/09/24 06:59:14;;;;;;;7.93;6.60;;;;;;;12.58;79.72;95870.47;6187466;23;20500;-81
2021/09/24 07:01:41;;;;;;;7.13;6.20;;;;;;;12.61;80.00;95874.53;6187528;23;20201;-81
2021/09/24 07:04:07;;;;;;;7.90;6.93;;;;;;;12.73;79.60;95881.97;6188390;23;20154;-81
2021/09/24 07:06:33;;;;;;;8.10;6.83;;;;;;;12.83;78.83;95881.06;6187933;23;20257;-80
2021/09/24 07:08:58;;;;;;;7.67;6.33;;;;;;;12.87;78.95;95874.56;6186691;23;20154;-81
2021/09/24 07:11:24;;;;;;;8.27;6.20;;;;;;;13.08;78.09;95888.06;6163007;23;20212;-81
2021/09/24 07:13:49;;;;;;;12.07;7.10;;;;;;;13.06;78.05;95884.78;6186442;23;20488;-81
2021/09/24 07:16:15;;;;;;;8.83;7.17;;;;;;;13.13;77.87;95888.41;6186321;23;20170;-81
2021/09/24 07:18:40;;;;;;;7.90;6.70;;;;;;;13.18;77.62;95886.16;6162780;23;20158;-81
2021/09/24 07:21:05;;;;;;;8.77;6.57;;;;;;;13.28;76.70;95884.28;6161893;23;20181;-81
2021/09/24 07:23:31;;;;;;;9.47;7.07;;;;;;;13.33;76.73;95879.41;6186388;23;20589;-82
2021/09/24 07:25:56;;;;;;;8.00;6.90;;;;;;;13.39;76.64;95882.38;6160279;23;20573;-82
2021/09/24 07:28:21;;;;;;;8.40;6.33;;;;;;;13.43;76.19;95881.06;6186964;23;20190;-81
2021/09/24 07:30:47;;;;;;;8.33;6.77;;;;;;;13.40;76.20;95882.19;6161869;23;20162;-81
2021/09/24 07:33:12;;;;;;;8.50;7.27;;;;;;;13.48;76.02;95884.03;6161961;23;20632;-82
2021/09/24 07:35:38;;;;;;;6.70;6.07;;;;;;;13.54;75.78;95884.22;6186091;23;20163;-81
2021/09/24 07:38:03;;;;;;;8.80;6.93;;;;;;;13.63;75.18;95892.09;6186033;23;20166;-82
2021/09/24 07:40:29;;;;;;;8.07;6.60;;;;;;;13.73;74.00;95888.38;6161643;23;20155;-79
2021/09/24 07:42:55;;;;;;;9.40;6.33;;;;;;;13.77;74.06;95894.06;6186619;23;20242;-79
2021/09/24 07:45:21;;;;;;;6.97;6.23;;;;;;;13.86;73.70;95888.72;6185153;23;20151;-81
2021/09/24 07:47:47;;;;;;;7.10;6.23;;;;;;;13.86;73.48;95893.13;6162054;23;20159;-81
2021/09/24 07:50:13;;;;;;;7.87;6.50;;;;;;;13.91;72.83;95888.25;6161880;23;20194;-80
2021/09/24 07:52:39;;;;;;;9.63;6.13;;;;;;;13.99;72.76;95895.28;6186189;23;20198;-80
2021/09/24 07:55:06;;;;;;;7.00;5.63;;;;;;;14.06;72.36;95893.69;6184841;23;20177;-80
2021/09/24 07:57:31;;;;;;;10.07;6.10;;;;;;;14.16;72.13;95894.34;6186129;23;20174;-80
2021/09/24 07:59:56;;;;;;;8.43;5.70;;;;;;;14.13;71.50;95905.09;6185490;23;20154;-78
2021/09/24 08:02:22;;;;;;;11.50;6.13;;;;;;;14.25;71.14;95900.38;6184705;23;20155;-79
2021/09/24 08:04:47;;;;;;;8.90;5.27;;;;;;;14.29;71.52;95906.91;6185933;23;20178;-78
2021/09/24 08:07:13;;;;;;;6.73;5.50;;;;;;;14.30;70.99;95906.75;6188991;23;20175;-78
2021/09/24 08:09:38;;;;;;;6.87;5.43;;;;;;;14.38;70.96;95913.78;6165456;23;20249;-78
2021/09/24 08:12:04;;;;;;;8.50;5.73;;;;;;;14.42;70.29;95915.91;6189605;23;20171;-78
2021/09/24 08:14:29;;;;;;;10.87;6.57;;;;;;;14.43;69.93;95907.09;6189643;23;20158;-78
2021/09/24 08:16:54;;;;;;;7.40;5.33;;;;;;;14.51;69.77;95911.56;6194239;23;20193;-79
2021/09/24 08:19:20;;;;;;;6.57;5.43;;;;;;;14.51;69.52;95913.34;6168150;23;20189;-78
2021/09/24 08:21:45;;;;;;;7.20;6.00;;;;;;;14.50;69.11;95917.75;6194037;23;20154;-78
2021/09/24 08:24:10;;;;;;;6.03;4.87;;;;;;;14.64;69.00;95917.09;6193722;23;20154;-78
2021/09/24 08:26:35;;;;;;;6.47;5.43;;;;;;;14.66;69.22;95914.31;6192532;23;20175;-78
2021/09/24 08:29:01;;;;;;;8.93;5.10;;;;;;;14.69;68.73;95917.44;6164921;23;20182;-78
2021/09/24 08:31:26;;;;;;;6.60;5.37;;;;;;;14.80;68.18;95920.69;6164371;23;20469;-78
2021/09/24 08:33:52;;;;;;;8.30;5.20;;;;;;;14.84;67.99;95914.97;6167754;23;20159;-79
2021/09/24 08:36:17;;;;;;;9.30;6.00;;;;;;;14.93;68.03;95918.38;6192777;23;20174;-79
2021/09/24 08:38:43;;;;;;;5.67;4.97;;;;;;;14.98;67.87;95916.91;6169511;23;20166;-79
2021/09/24 08:41:08;;;;;;;8.60;5.00;;;;;;;15.00;67.66;95919.34;6194099;23;20158;-78
2021/09/24 08:43:33;;;;;;;5.67;5.00;;;;;;;15.10;67.25;95919.16;6194061;23;20177;-79
2021/09/24 08:45:59;;;;;;;8.27;5.27;;;;;;;15.21;67.00;95924.06;6194470;23;20633;-79
2021/09/24 08:48:24;;;;;;;7.60;4.93;;;;;;;15.25;67.02;95914.91;6169147;23;20199;-79
2021/09/24 08:50:51;;;;;;;9.00;5.30;;;;;;;15.30;66.51;95920.44;6194543;23;20151;-78
2021/09/24 08:53:19;;;;;;;8.90;5.37;;;;;;;15.43;66.26;95922.53;6169727;23;20702;-78
2021/09/24 08:55:45;;;;;;;6.03;5.00;;;;;;;15.41;66.50;95917.47;6170241;23;20209;-78
2021/09/24 08:58:15;;;;;;;5.90;4.93;;;;;;;15.51;65.71;95918.09;6195045;23;20592;-79
2021/09/24 09:00:42;;;;;;;5.30;4.80;;;;;;;15.61;65.83;95917.09;6170522;23;20163;-78
2021/09/24 09:03:14;;;;;;;5.60;5.03;;;;;;;15.63;65.72;95922.97;6194029;23;20154;-79
2021/09/24 09:05:49;;;;;;;5.60;5.10;;;;;;;15.74;65.20;95925.25;6193253;23;20246;-79
2021/09/24 09:08:17;;;;;;;9.27;5.13;;;;;;;15.74;64.00;95922.63;6194194;23;20146;-78
2021/09/24 09:11:13;;;;;;;6.20;5.60;;;;;;;15.73;64.31;95918.38;6196225;23;20182;-79
2021/09/24 09:13:42;;;;;;;5.93;4.80;;;;;;;15.86;65.06;95921.25;6192742;23;20162;-78
2021/09/24 09:16:09;;;;;;;8.93;4.80;;;;;;;16.04;64.47;95927.06;6190540;23;20209;-78
2021/09/24 09:18:36;;;;;;;7.33;5.40;;;;;;;16.04;64.36;95926.25;6190027;23;20173;-78
2021/09/24 09:21:03;;;;;;;5.75;5.10;;;;;;;16.10;63.74;95928.19;6189873;23;20155;-78
2021/09/24 09:23:30;;;;;;;5.80;5.22;;;;;;;16.11;63.60;95930.63;6191248;23;20174;-78
2021/09/24 09:25:58;;;;;;;4.78;4.32;;;;;;;16.20;63.72;95925.34;6164300;23;20234;-78
2021/09/24 09:28:29;;;;;;;5.68;5.05;;;;;;;16.28;62.95;95925.28;6190184;23;20551;-77
2021/09/24 09:30:55;;;;;;;5.82;5.18;;;;;;;16.34;62.72;95919.34;6189634;23;20167;-78
2021/09/24 09:33:21;;;;;;;7.82;5.25;;;;;;;16.29;63.19;95922.50;6190312;23;20190;-78
2021/09/24 09:35:53;;;;;;;8.43;5.07;;;;;;;16.49;62.42;95924.66;6191397;23;20175;-78
2021/09/24 09:38:26;;;;;;;5.55;4.68;;;;;;;16.35;62.13;95921.00;6164704;23;20213;-78
2021/09/24 09:41:00;;;;;;;5.43;4.82;;;;;;;16.34;62.38;95933.28;6190125;23;20194;-78
2021/09/24 09:43:38;;;;;;;5.05;4.63;;;;;;;16.46;62.08;95925.81;6189478;23;20146;-77
2021/09/24 09:46:07;;;;;;;5.47;4.75;;;;;;;16.40;62.09;95929.94;6165091;23;20201;-78
2021/09/24 09:48:33;;;;;;;5.57;4.78;;;;;;;16.42;61.74;95921.91;6190334;23;20288;-78
2021/09/24 09:50:59;;;;;;;5.38;4.82;;;;;;;16.46;61.91;95925.81;6190255;23;20156;-77
2021/09/24 09:53:25;;;;;;;5.90;4.80;;;;;;;16.50;61.08;95919.22;6189863;23;20197;-78
2021/09/24 09:55:54;;;;;;;4.97;4.50;;;;;;;16.65;61.22;95919.28;6163815;23;20186;-77
2021/09/24 09:58:22;;;;;;;6.28;5.35;;;;;;;16.75;60.73;95914.66;6190270;23;20154;-79
2021/09/24 10:00:54;;;;;;;5.72;4.53;;;;;;;16.77;61.01;95919.69;6190248;23;20157;-78
2021/09/24 10:03:30;;;;;;;7.25;5.15;;;;;;;16.83;60.58;95911.13;6190972;23;20155;-78
2021/09/24 10:05:56;;;;;;;6.75;4.93;;;;;;;16.78;60.29;95908.22;6190039;23;20574;-78
2021/09/24 10:08:32;;;;;;;5.55;5.03;;;;;;;16.84;61.61;95910.16;6190857;23;20151;-78
2021/09/24 10:11:03;;;;;;;4.93;4.50;;;;;;;16.72;59.72;95907.13;6165242;23;20154;-78
2021/09/24 10:13:32;;;;;;;6.40;5.47;;;;;;;16.76;61.12;95904.97;6191075;23;20631;-78
2021/09/24 10:15:57;;;;;;;6.25;4.53;;;;;;;16.83;60.31;95903.28;6189782;23;20170;-78
2021/09/24 10:18:23;;;;;;;7.18;5.00;;;;;;;16.75;60.13;95898.09;6163691;23;20627;-77
2021/09/24 10:20:48;;;;;;;8.73;4.90;;;;;;;16.75;60.42;95905.97;6189899;23;20158;-78
2021/09/24 10:23:14;;;;;;;5.18;4.70;;;;;;;16.82;60.33;95901.66;6165300;23;20158;-78
2021/09/24 10:25:41;;;;;;;7.80;4.30;;;;;;;17.02;60.15;95900.13;6189381;23;20258;-77
2021/09/24 10:28:08;;;;;;;5.75;5.10;;;;;;;17.04;59.50;95898.13;6165585;23;20154;-78
2021/09/24 10:30:35;;;;;;;5.05;4.63;;;;;;;17.05;58.88;95906.81;6164992;23;20214;-77
2021/09/24 10:33:04;;;;;;;5.05;4.65;;;;;;;16.99;59.14;95900.50;6165758;23;20177;-78
2021/09/24 10:35:48;;;;;;;5.60;4.97;;;;;;;16.90;59.44;95898.94;6164958;23;20613;-78
2021/09/24 10:38:15;;;;;;;5.50;4.10;;;;;;;16.97;59.53;95897.25;6191412;23;20154;-78
2021/09/24 10:41:05;;;;;;;6.00;4.35;;;;;;;17.11;59.19;95904.31;6165950;23;20265;-78
2021/09/24 10:43:43;;;;;;;6.40;5.22;;;;;;;17.10;58.78;95900.06;6166092;23;20147;-79
2021/09/24 10:46:33;;;;;;;5.28;4.15;;;;;;;17.32;59.05;95892.31;6190298;23;20194;-79
2021/09/24 10:49:16;;;;;;;5.75;4.95;;;;;;;17.46;57.93;95888.84;6178481;23;20166;-78
2021/09/24 10:51:47;;;;;;;5.05;4.65;;;;;;;17.41;58.04;95893.84;6190919;23;20600;-78
2021/09/24 10:54:21;;;;;;;5.75;4.43;;;;;;;17.50;57.08;95892.75;6195709;23;20177;-79
2021/09/24 10:57:08;;;;;;;6.57;4.40;;;;;;;17.59;57.10;95893.47;6170523;23;20188;-79
2021/09/24 10:59:34;;;;;;;6.63;4.35;;;;;;;17.47;56.40;95890.47;6169187;23;20166;-78
2021/09/24 11:02:00;;;;;;;7.47;4.78;;;;;;;17.48;57.33;95876.34;6195450;23;20158;-78
2021/09/24 11:04:43;;;;;;;6.70;4.57;;;;;;;17.40;56.25;95879.88;6169016;23;20232;-78
2021/09/24 11:07:09;;;;;;;5.18;4.68;;;;;;;17.47;55.80;95883.41;6163535;23;20177;-79
2021/09/24 11:09:49;;;;;;;5.07;4.57;;;;;;;17.44;55.81;95880.34;6190318;23;20185;-79
2021/09/24 11:12:15;;;;;;;8.13;4.80;;;;;;;17.58;56.83;95878.69;6188900;23;20258;-79
2021/09/24 11:14:43;;;;;;;7.38;4.72;;;;;;;17.61;56.85;95880.97;6188431;23;20151;-79
2021/09/24 11:17:10;;;;;;;5.25;4.40;;;;;;;17.83;56.02;95883.50;6189734;23;20198;-79
2021/09/24 11:19:39;;;;;;;5.05;4.30;;;;;;;17.47;56.97;95878.16;6164002;23;20197;-79
2021/09/24 11:22:19;;;;;;;5.75;4.82;;;;;;;17.59;57.60;95875.09;6189416;23;20202;-81
2021/09/24 11:24:56;;;;;;;5.55;4.40;;;;;;;17.92;57.17;95876.31;6186797;23;20159;-80
2021/09/24 11:27:42;;;;;;;6.05;4.20;;;;;;;17.95;56.10;95877.78;6189542;23;20196;-80
2021/09/24 11:30:15;;;;;;;7.30;4.60;;;;;;;17.98;56.46;95875.59;6164340;23;20150;-80